Time;durP1;ratioP1;P1;durP2;ratioP2;P2;SDS_P1;SDS_P2;PMS_P1;PMS_P2;Temp;Humidity;BMP_temperature;BMP_pressure;BME280_temperature;BME280_humidity;BME280_pressure;Samples;Min_cycle;Max_cycle;Signal;HPM_P1;HPM_P2
2022/08/16 00:00:23;;;;;;;8.63;7.05;;;;;;;;;;5033966;28;20022;-64
2022/08/16 00:02:49;;;;;;;11.70;7.32;;;;;;;;;;5033926;28;20351;-63
2022/08/16 00:05:15;;;;;;;9.32;7.30;;;;;;;;;;5033835;28;20155;-64
2022/08/16 00:07:40;;;;;;;7.60;6.32;;;;;;;;;;5033816;28;20075;-64
2022/08/16 00:10:08;;;;;;;7.72;6.10;;;;;;;;;;5033560;28;20031;-64
2022/08/16 00:12:33;;;;;;;7.97;5.90;;;;;;;;;;5033505;28;20507;-64
2022/08/16 00:15:00;;;;;;;6.75;6.15;;;;;;;;;;5033817;28;20057;-64
2022/08/16 00:17:25;;;;;;;6.72;6.03;;;;;;;;;;5033563;28;20409;-64
2022/08/16 00:19:51;;;;;;;8.77;6.85;;;;;;;;;;5033318;28;20022;-64
2022/08/16 00:22:16;;;;;;;8.90;7.65;;;;;;;;;;5033704;28;20529;-64
2022/08/16 00:24:42;;;;;;;9.43;7.85;;;;;;;;;;5033651;28;20104;-64
2022/08/16 00:27:08;;;;;;;8.43;7.63;;;;;;;;;;5033629;28;20425;-64
2022/08/16 00:29:33;;;;;;;11.93;7.28;;;;;;;;;;5033939;28;20097;-63
2022/08/16 00:31:59;;;;;;;8.25;7.50;;;;;;;;;;5033606;28;20440;-63
2022/08/16 00:34:25;;;;;;;7.13;6.43;;;;;;;;;;5065822;28;20025;-63
2022/08/16 00:36:51;;;;;;;7.43;6.25;;;;;;;;;;5065351;28;20481;-63
2022/08/16 00:39:16;;;;;;;7.07;6.20;;;;;;;;;;5033831;28;20017;-64
2022/08/16 00:41:42;;;;;;;7.50;6.75;;;;;;;;;;5033703;28;20029;-64
2022/08/16 00:44:10;;;;;;;7.38;6.65;;;;;;;;;;5032330;28;20036;-64
2022/08/16 00:46:37;;;;;;;7.25;6.50;;;;;;;;;;5015686;28;20080;-64
2022/08/16 00:49:04;;;;;;;8.75;6.50;;;;;;;;;;5037241;28;20014;-64
2022/08/16 00:51:31;;;;;;;8.80;6.43;;;;;;;;;;5036753;28;20060;-70
2022/08/16 00:53:56;;;;;;;6.90;6.22;;;;;;;;;;5069462;28;20021;-69
2022/08/16 00:56:23;;;;;;;8.18;6.15;;;;;;;;;;5036215;28;20382;-69
2022/08/16 00:58:49;;;;;;;8.48;7.68;;;;;;;;;;5037135;28;20025;-69
2022/08/16 01:01:16;;;;;;;7.53;6.38;;;;;;;;;;5036942;28;20025;-69
2022/08/16 01:03:42;;;;;;;9.55;6.85;;;;;;;;;;5069323;28;20013;-69
2022/08/16 01:06:09;;;;;;;6.68;6.05;;;;;;;;;;5037044;28;20028;-69
2022/08/16 01:08:35;;;;;;;9.63;7.05;;;;;;;;;;5069593;28;20018;-69
2022/08/16 01:11:01;;;;;;;7.15;6.45;;;;;;;;;;5036953;28;20030;-69
2022/08/16 01:13:29;;;;;;;9.15;7.25;;;;;;;;;;5035372;28;20029;-69
2022/08/16 01:16:04;;;;;;;8.70;7.18;;;;;;;;;;5037091;28;20030;-69
2022/08/16 01:18:37;;;;;;;7.80;7.10;;;;;;;;;;5036818;28;20029;-69
2022/08/16 01:21:20;;;;;;;10.20;7.22;;;;;;;;;;5036882;28;20453;-70
2022/08/16 01:24:05;;;;;;;8.75;7.15;;;;;;;;;;5035154;28;20117;-69
2022/08/16 01:26:32;;;;;;;8.70;7.43;;;;;;;;;;5036944;28;20029;-68
2022/08/16 01:29:00;;;;;;;8.30;7.50;;;;;;;;;;5036653;28;20373;-68
2022/08/16 01:31:26;;;;;;;10.85;7.35;;;;;;;;;;5068575;28;20377;-68
2022/08/16 01:33:52;;;;;;;8.45;7.60;;;;;;;;;;5034922;28;20481;-68
2022/08/16 01:36:17;;;;;;;10.43;7.80;;;;;;;;;;5068271;28;20030;-68
2022/08/16 01:38:45;;;;;;;11.00;7.90;;;;;;;;;;5068258;28;20024;-68
2022/08/16 01:41:13;;;;;;;10.30;8.23;;;;;;;;;;5036161;28;20029;-69
2022/08/16 01:43:40;;;;;;;9.32;7.72;;;;;;;;;;5035115;28;20529;-69
2022/08/16 01:46:07;;;;;;;8.10;7.32;;;;;;;;;;5068325;28;20029;-68
2022/08/16 01:48:33;;;;;;;10.13;7.90;;;;;;;;;;5068773;28;20339;-69
2022/08/16 01:51:00;;;;;;;8.30;7.35;;;;;;;;;;5035222;28;20083;-68
2022/08/16 01:53:25;;;;;;;6.88;5.88;;;;;;;;;;5067877;28;20041;-68
2022/08/16 01:56:14;;;;;;;11.82;6.47;;;;;;;;;;5030312;28;20135;-68
2022/08/16 01:58:39;;;;;;;8.00;7.13;;;;;;;;;;5033590;28;20060;-68
2022/08/16 02:01:06;;;;;;;8.15;7.13;;;;;;;;;;5034679;28;20033;-68
2022/08/16 02:03:32;;;;;;;8.80;7.43;;;;;;;;;;5068112;28;20487;-68
2022/08/16 02:05:57;;;;;;;7.60;6.82;;;;;;;;;;5035660;28;20046;-68
2022/08/16 02:08:25;;;;;;;8.75;7.07;;;;;;;;;;5035826;28;20026;-68
2022/08/16 02:10:51;;;;;;;10.85;7.72;;;;;;;;;;5035568;28;20035;-63
2022/08/16 02:13:16;;;;;;;8.45;7.25;;;;;;;;;;5035621;28;20029;-63
2022/08/16 02:15:41;;;;;;;9.35;7.20;;;;;;;;;;5068005;28;20461;-64
2022/08/16 02:18:07;;;;;;;8.18;7.22;;;;;;;;;;5035542;28;20057;-64
2022/08/16 02:20:35;;;;;;;8.45;7.53;;;;;;;;;;5035601;28;20021;-64
2022/08/16 02:23:00;;;;;;;7.57;6.85;;;;;;;;;;5067718;28;20477;-64
2022/08/16 02:25:26;;;;;;;7.10;6.45;;;;;;;;;;5035554;28;20024;-64
2022/08/16 02:27:52;;;;;;;8.18;6.35;;;;;;;;;;5035332;28;20082;-64
2022/08/16 02:30:24;;;;;;;7.65;6.95;;;;;;;;;;5018089;28;20028;-63
2022/08/16 02:32:50;;;;;;;8.85;7.97;;;;;;;;;;5035392;28;20257;-64
2022/08/16 02:35:16;;;;;;;9.45;6.95;;;;;;;;;;5035257;28;20512;-64
2022/08/16 02:37:41;;;;;;;5.93;5.43;;;;;;;;;;5034232;28;20120;-64
2022/08/16 02:40:08;;;;;;;6.13;5.63;;;;;;;;;;5035027;28;20124;-68
2022/08/16 02:42:34;;;;;;;6.57;5.35;;;;;;;;;;5067626;28;20029;-69
2022/08/16 02:45:00;;;;;;;5.95;5.38;;;;;;;;;;5066973;28;20017;-69
2022/08/16 02:47:25;;;;;;;6.30;5.75;;;;;;;;;;5067572;28;20056;-68
2022/08/16 02:49:50;;;;;;;5.30;4.90;;;;;;;;;;5034805;28;20021;-68
2022/08/16 02:52:17;;;;;;;5.60;5.20;;;;;;;;;;5066645;28;20042;-68
2022/08/16 02:54:42;;;;;;;8.13;6.25;;;;;;;;;;5067063;28;20045;-68
2022/08/16 02:57:08;;;;;;;7.45;6.85;;;;;;;;;;5066657;28;20099;-68
2022/08/16 02:59:34;;;;;;;6.97;6.38;;;;;;;;;;5033240;28;20465;-68
2022/08/16 03:01:59;;;;;;;8.23;6.40;;;;;;;;;;5033281;28;20084;-70
2022/08/16 03:04:28;;;;;;;7.88;7.07;;;;;;;;;;5067145;28;20021;-70
2022/08/16 03:06:54;;;;;;;8.05;6.55;;;;;;;;;;5066440;28;20022;-69
2022/08/16 03:09:28;;;;;;;7.22;6.30;;;;;;;;;;5033175;28;20018;-69
2022/08/16 03:11:53;;;;;;;6.97;6.40;;;;;;;;;;5066252;28;20393;-69
2022/08/16 03:14:19;;;;;;;6.90;6.20;;;;;;;;;;5033101;28;20405;-69
2022/08/16 03:16:46;;;;;;;6.97;6.28;;;;;;;;;;5033783;28;20037;-68
2022/08/16 03:19:12;;;;;;;7.38;6.72;;;;;;;;;;5032940;28;20014;-63
2022/08/16 03:21:38;;;;;;;8.02;6.80;;;;;;;;;;5033376;28;20405;-63
2022/08/16 03:24:08;;;;;;;7.72;7.03;;;;;;;;;;5034321;28;20061;-69
2022/08/16 03:26:34;;;;;;;10.98;7.53;;;;;;;;;;5034604;28;20017;-63
2022/08/16 03:29:00;;;;;;;9.05;6.43;;;;;;;;;;5066133;28;20105;-63
2022/08/16 03:31:26;;;;;;;9.40;6.90;;;;;;;;;;5066021;28;20120;-63
2022/08/16 03:33:51;;;;;;;8.00;6.82;;;;;;;;;;5066225;28;20021;-63
2022/08/16 03:36:17;;;;;;;9.13;6.82;;;;;;;;;;5066015;28;20056;-63
2022/08/16 03:38:43;;;;;;;7.53;6.85;;;;;;;;;;5066035;28;20056;-63
2022/08/16 03:41:12;;;;;;;6.75;6.18;;;;;;;;;;5033171;28;20025;-63
2022/08/16 03:43:38;;;;;;;8.13;7.05;;;;;;;;;;5032587;28;20531;-63
2022/08/16 03:46:04;;;;;;;7.28;6.57;;;;;;;;;;5032568;28;20025;-64
2022/08/16 03:48:36;;;;;;;7.93;6.80;;;;;;;;;;5066090;28;20018;-63
2022/08/16 03:51:08;;;;;;;6.88;6.22;;;;;;;;;;5033143;28;20068;-62
2022/08/16 03:53:38;;;;;;;10.07;7.97;;;;;;;;;;5064592;28;20060;-62
2022/08/16 03:56:06;;;;;;;10.18;8.45;;;;;;;;;;5031394;28;20436;-62
2022/08/16 03:58:31;;;;;;;9.65;8.32;;;;;;;;;;5032625;28;20018;-62
2022/08/16 04:00:57;;;;;;;10.82;9.15;;;;;;;;;;5064435;28;20104;-62
2022/08/16 04:03:22;;;;;;;10.13;8.32;;;;;;;;;;5064527;28;20096;-62
2022/08/16 04:05:49;;;;;;;8.55;7.55;;;;;;;;;;5032540;28;20030;-62
2022/08/16 04:08:20;;;;;;;11.60;9.47;;;;;;;;;;5031290;28;20014;-62
2022/08/16 04:10:46;;;;;;;8.15;7.35;;;;;;;;;;5064524;28;20044;-62
2022/08/16 04:13:11;;;;;;;6.70;6.03;;;;;;;;;;5032442;28;20017;-62
2022/08/16 04:15:37;;;;;;;7.25;6.53;;;;;;;;;;5064451;28;20033;-62
2022/08/16 04:18:22;;;;;;;7.85;7.05;;;;;;;;;;5032145;28;20043;-62
2022/08/16 04:20:51;;;;;;;11.88;8.90;;;;;;;;;;5032092;28;20098;-63
2022/08/16 04:23:20;;;;;;;11.57;9.05;;;;;;;;;;5068219;28;20068;-62
2022/08/16 04:25:45;;;;;;;11.68;9.00;;;;;;;;;;5069544;28;20017;-62
2022/08/16 04:28:12;;;;;;;11.15;8.80;;;;;;;;;;5034587;28;20100;-62
2022/08/16 04:30:38;;;;;;;9.35;8.48;;;;;;;;;;5068741;28;20493;-62
2022/08/16 04:33:04;;;;;;;8.88;7.72;;;;;;;;;;5069663;28;20021;-62
2022/08/16 04:35:33;;;;;;;8.80;7.93;;;;;;;;;;5069411;28;20387;-62
2022/08/16 04:37:58;;;;;;;10.13;8.40;;;;;;;;;;5037332;28;20104;-62
2022/08/16 04:40:28;;;;;;;10.02;8.50;;;;;;;;;;5067431;28;20037;-63
2022/08/16 04:42:56;;;;;;;9.40;8.55;;;;;;;;;;5067157;28;20037;-63
2022/08/16 04:45:24;;;;;;;9.35;8.38;;;;;;;;;;5067068;28;20095;-62
2022/08/16 04:47:50;;;;;;;9.13;8.25;;;;;;;;;;5033863;28;20071;-62
2022/08/16 04:50:18;;;;;;;10.65;9.00;;;;;;;;;;5050586;28;20041;-62
2022/08/16 04:53:02;;;;;;;9.52;8.57;;;;;;;;;;5035164;28;20080;-62
2022/08/16 04:55:30;;;;;;;10.95;9.40;;;;;;;;;;5068538;28;20048;-62
2022/08/16 04:57:56;;;;;;;9.88;8.95;;;;;;;;;;5037523;28;20021;-62
2022/08/16 05:00:24;;;;;;;11.48;9.38;;;;;;;;;;5036119;28;20488;-62
2022/08/16 05:02:51;;;;;;;9.70;8.75;;;;;;;;;;5035578;28;20049;-62
2022/08/16 05:05:17;;;;;;;13.65;9.77;;;;;;;;;;5035535;28;20037;-62
2022/08/16 05:07:43;;;;;;;13.20;10.30;;;;;;;;;;5036850;28;20021;-62
2022/08/16 05:10:09;;;;;;;11.35;9.70;;;;;;;;;;5035438;28;20428;-62
2022/08/16 05:12:35;;;;;;;11.65;9.38;;;;;;;;;;5068774;28;20108;-62
2022/08/16 05:15:02;;;;;;;10.65;9.55;;;;;;;;;;5068670;28;20076;-62
2022/08/16 05:17:27;;;;;;;10.30;9.07;;;;;;;;;;5035319;28;20040;-63
2022/08/16 05:19:57;;;;;;;13.75;9.93;;;;;;;;;;5068970;28;20037;-62
2022/08/16 05:22:22;;;;;;;12.57;10.30;;;;;;;;;;5035216;28;20022;-62
2022/08/16 05:24:52;;;;;;;11.33;10.10;;;;;;;;;;5035210;28;20129;-62
2022/08/16 05:27:17;;;;;;;12.25;10.27;;;;;;;;;;5037001;28;20049;-62
2022/08/16 05:29:43;;;;;;;14.23;10.38;;;;;;;;;;5035363;28;20030;-62
2022/08/16 05:32:12;;;;;;;13.13;10.10;;;;;;;;;;5068296;28;20026;-62
2022/08/16 05:34:37;;;;;;;12.77;10.27;;;;;;;;;;5033607;28;20030;-62
2022/08/16 05:37:03;;;;;;;12.43;9.82;;;;;;;;;;5036445;28;20083;-63
2022/08/16 05:39:33;;;;;;;11.73;10.52;;;;;;;;;;5068081;28;20033;-62
2022/08/16 05:41:59;;;;;;;14.57;9.93;;;;;;;;;;5068160;28;20495;-62
2022/08/16 05:44:24;;;;;;;15.73;9.93;;;;;;;;;;5036346;28;20022;-62
2022/08/16 05:46:55;;;;;;;13.98;11.30;;;;;;;;;;5068096;28;20025;-62
2022/08/16 05:49:23;;;;;;;14.68;11.07;;;;;;;;;;5035030;28;20055;-62
2022/08/16 05:51:51;;;;;;;13.30;10.35;;;;;;;;;;5062177;28;20050;-63
2022/08/16 05:54:18;;;;;;;14.10;10.35;;;;;;;;;;5016830;28;20037;-62
2022/08/16 05:56:47;;;;;;;12.75;10.13;;;;;;;;;;5068154;28;20030;-62
2022/08/16 05:59:14;;;;;;;10.77;8.73;;;;;;;;;;5067867;28;20045;-62
2022/08/16 06:01:40;;;;;;;16.00;10.23;;;;;;;;;;5068019;28;20029;-62
2022/08/16 06:04:07;;;;;;;14.70;10.90;;;;;;;;;;5068049;28;20025;-62
2022/08/16 06:06:39;;;;;;;10.68;9.45;;;;;;;;;;5068034;28;20052;-63
2022/08/16 06:09:05;;;;;;;9.88;8.80;;;;;;;;;;5067673;28;20029;-62
2022/08/16 06:11:30;;;;;;;11.15;10.07;;;;;;;;;;5034304;28;20021;-62
2022/08/16 06:13:59;;;;;;;11.25;10.15;;;;;;;;;;5051295;28;20401;-62
2022/08/16 06:16:33;;;;;;;11.23;9.43;;;;;;;;;;5067490;28;20025;-62
2022/08/16 06:18:58;;;;;;;12.80;10.50;;;;;;;;;;5034191;28;20030;-62
2022/08/16 06:21:24;;;;;;;12.77;10.38;;;;;;;;;;5067364;28;20112;-62
2022/08/16 06:23:59;;;;;;;11.93;9.85;;;;;;;;;;5034394;28;20033;-62
2022/08/16 06:26:24;;;;;;;12.43;10.18;;;;;;;;;;5034019;28;20495;-62
2022/08/16 06:28:50;;;;;;;13.13;10.10;;;;;;;;;;5067311;28;20455;-62
2022/08/16 06:31:21;;;;;;;10.82;9.40;;;;;;;;;;5067442;28;20072;-62
2022/08/16 06:33:47;;;;;;;12.63;10.05;;;;;;;;;;5067220;28;20539;-62
2022/08/16 06:36:15;;;;;;;12.20;10.07;;;;;;;;;;5033890;28;20056;-62
2022/08/16 06:39:01;;;;;;;11.13;9.95;;;;;;;;;;5028149;28;20225;-62
2022/08/16 06:41:41;;;;;;;11.68;10.00;;;;;;;;;;5048616;28;20104;-62
2022/08/16 06:44:18;;;;;;;10.43;9.18;;;;;;;;;;5033968;28;20029;-62
2022/08/16 06:46:43;;;;;;;10.30;9.25;;;;;;;;;;5035013;28;20029;-62
2022/08/16 06:49:14;;;;;;;8.57;7.72;;;;;;;;;;5033886;28;20017;-62
2022/08/16 06:51:41;;;;;;;9.25;8.43;;;;;;;;;;5066847;28;20129;-62
2022/08/16 06:54:07;;;;;;;10.70;9.35;;;;;;;;;;5066734;28;20044;-62
2022/08/16 06:56:33;;;;;;;9.38;8.48;;;;;;;;;;5066656;28;20389;-62
2022/08/16 06:59:06;;;;;;;11.35;8.02;;;;;;;;;;5067477;28;20026;-62
2022/08/16 07:01:35;;;;;;;12.88;9.57;;;;;;;;;;5066959;28;20513;-62
2022/08/16 07:04:00;;;;;;;8.48;7.68;;;;;;;;;;5033285;28;20060;-62
2022/08/16 07:06:31;;;;;;;8.50;7.65;;;;;;;;;;5066721;28;20048;-62
2022/08/16 07:08:59;;;;;;;11.00;7.90;;;;;;;;;;5066680;28;20068;-62
2022/08/16 07:11:28;;;;;;;9.95;7.70;;;;;;;;;;5066691;28;20028;-62
2022/08/16 07:13:53;;;;;;;8.80;7.50;;;;;;;;;;5067440;28;20112;-62
2022/08/16 07:16:20;;;;;;;12.38;9.10;;;;;;;;;;5066667;28;20113;-62
2022/08/16 07:18:46;;;;;;;10.95;9.60;;;;;;;;;;5034264;28;20462;-62
2022/08/16 07:21:12;;;;;;;13.60;9.23;;;;;;;;;;5067032;28;20026;-62
2022/08/16 07:23:43;;;;;;;12.85;8.60;;;;;;;;;;5034280;28;20029;-62
2022/08/16 07:26:10;;;;;;;8.63;7.53;;;;;;;;;;5066200;28;20030;-62
2022/08/16 07:28:36;;;;;;;9.43;7.88;;;;;;;;;;5033151;28;20462;-62
2022/08/16 07:31:03;;;;;;;11.57;8.05;;;;;;;;;;5066154;28;20041;-63
2022/08/16 07:33:36;;;;;;;8.65;7.38;;;;;;;;;;5033147;28;20022;-62
2022/08/16 07:36:04;;;;;;;10.90;9.23;;;;;;;;;;5065290;28;20133;-62
2022/08/16 07:38:30;;;;;;;11.75;9.10;;;;;;;;;;5066237;28;20362;-62
2022/08/16 07:40:56;;;;;;;11.43;6.97;;;;;;;;;;5033872;28;20040;-62
2022/08/16 07:43:23;;;;;;;10.85;8.23;;;;;;;;;;5032616;28;20461;-63
2022/08/16 07:45:49;;;;;;;7.85;7.10;;;;;;;;;;5065977;28;20124;-62
2022/08/16 07:48:14;;;;;;;41.63;13.05;;;;;;;;;;5032858;28;20115;-62
2022/08/16 07:50:44;;;;;;;21.23;10.38;;;;;;;;;;5066176;28;20385;-62
2022/08/16 07:53:11;;;;;;;93.00;24.75;;;;;;;;;;5065550;28;20053;-62
2022/08/16 07:55:37;;;;;;;19.63;12.15;;;;;;;;;;5033327;28;20121;-62
2022/08/16 07:58:03;;;;;;;31.00;11.50;;;;;;;;;;5033230;28;20092;-62
2022/08/16 08:00:33;;;;;;;12.57;8.43;;;;;;;;;;5032368;28;20049;-62
2022/08/16 08:02:59;;;;;;;47.20;13.70;;;;;;;;;;5032371;28;20036;-62
2022/08/16 08:05:26;;;;;;;57.67;19.25;;;;;;;;;;5065623;28;20428;-62
2022/08/16 08:07:52;;;;;;;63.60;21.80;;;;;;;;;;5065973;28;20071;-62
2022/08/16 08:10:18;;;;;;;13.90;9.90;;;;;;;;;;5065884;28;20025;-62
2022/08/16 08:12:46;;;;;;;18.75;10.43;;;;;;;;;;5065506;28;20026;-62
2022/08/16 08:15:12;;;;;;;14.88;9.90;;;;;;;;;;5065770;28;20116;-62
2022/08/16 08:17:39;;;;;;;15.13;10.10;;;;;;;;;;5032524;28;20489;-62
2022/08/16 08:20:06;;;;;;;15.98;10.13;;;;;;;;;;5033435;28;20017;-62
2022/08/16 08:22:32;;;;;;;14.18;9.35;;;;;;;;;;5033499;28;20112;-62
2022/08/16 08:25:02;;;;;;;12.15;9.52;;;;;;;;;;5032185;28;20021;-62
2022/08/16 08:27:27;;;;;;;15.10;9.80;;;;;;;;;;5033688;28;20033;-62
2022/08/16 08:29:53;;;;;;;18.85;9.70;;;;;;;;;;5065778;28;20017;-62
2022/08/16 08:32:21;;;;;;;14.90;10.20;;;;;;;;;;5033708;28;20041;-62
2022/08/16 08:34:47;;;;;;;20.70;12.50;;;;;;;;;;5065491;28;20025;-62
2022/08/16 08:37:13;;;;;;;22.48;12.90;;;;;;;;;;5032037;28;20112;-62
2022/08/16 08:39:40;;;;;;;22.70;13.77;;;;;;;;;;5033539;28;20113;-62
2022/08/16 08:42:06;;;;;;;19.90;11.70;;;;;;;;;;5032013;28;20089;-62
2022/08/16 08:44:33;;;;;;;17.30;10.13;;;;;;;;;;5065282;28;20029;-62
2022/08/16 08:47:05;;;;;;;21.42;9.77;;;;;;;;;;5065871;28;20112;-62
2022/08/16 08:49:32;;;;;;;14.88;9.60;;;;;;;;;;5065245;28;20049;-62
2022/08/16 08:51:57;;;;;;;16.42;9.60;;;;;;;;;;5033209;28;20018;-62
2022/08/16 08:54:25;;;;;;;15.27;9.75;;;;;;;;;;5031810;28;20103;-62
2022/08/16 08:56:53;;;;;;;15.02;9.18;;;;;;;;;;5031842;28;20489;-62
2022/08/16 08:59:38;;;;;;;13.50;10.82;;;;;;;;;;5022093;28;20044;-62
2022/08/16 09:02:07;;;;;;;16.33;9.48;;;;;;;;;;5032410;28;20436;-62
2022/08/16 09:04:44;;;;;;;13.35;8.88;;;;;;;;;;5031816;28;20046;-62
2022/08/16 09:07:11;;;;;;;13.75;9.52;;;;;;;;;;5031757;28;20029;-62
2022/08/16 09:09:38;;;;;;;10.07;7.88;;;;;;;;;;5068599;28;20508;-62
2022/08/16 09:12:07;;;;;;;11.88;9.00;;;;;;;;;;5035490;28;20030;-62
2022/08/16 09:14:42;;;;;;;13.18;9.45;;;;;;;;;;5035427;28;20052;-62
2022/08/16 09:17:07;;;;;;;13.00;10.15;;;;;;;;;;5035381;28;20025;-62
2022/08/16 09:19:36;;;;;;;13.73;9.43;;;;;;;;;;5035525;28;20469;-62
2022/08/16 09:22:02;;;;;;;17.02;10.85;;;;;;;;;;5068622;28;20033;-62
2022/08/16 09:24:28;;;;;;;10.80;9.65;;;;;;;;;;5068567;28;20390;-62
2022/08/16 09:26:53;;;;;;;15.70;9.95;;;;;;;;;;5036394;28;20022;-62
2022/08/16 09:29:19;;;;;;;12.00;9.57;;;;;;;;;;5068456;28;20009;-62
2022/08/16 09:31:46;;;;;;;11.20;8.80;;;;;;;;;;5035035;28;20541;-62
2022/08/16 09:34:11;;;;;;;12.57;9.20;;;;;;;;;;5035150;28;20100;-63
2022/08/16 09:36:36;;;;;;;10.65;9.50;;;;;;;;;;5036280;28;20022;-62
2022/08/16 09:39:02;;;;;;;11.40;9.75;;;;;;;;;;5036492;28;20025;-62
2022/08/16 09:41:28;;;;;;;11.43;9.50;;;;;;;;;;5036118;28;20108;-62
2022/08/16 09:43:53;;;;;;;12.52;9.63;;;;;;;;;;5036393;28;20422;-62
2022/08/16 09:46:19;;;;;;;10.88;9.18;;;;;;;;;;5036333;28;20351;-62
2022/08/16 09:48:45;;;;;;;13.23;9.52;;;;;;;;;;5036321;28;20071;-62
2022/08/16 09:51:11;;;;;;;10.95;9.13;;;;;;;;;;5036511;28;20037;-62
2022/08/16 09:53:37;;;;;;;13.75;9.70;;;;;;;;;;5036116;28;20095;-62
2022/08/16 09:56:06;;;;;;;12.95;9.50;;;;;;;;;;5036184;28;20457;-62
2022/08/16 09:58:32;;;;;;;10.48;8.95;;;;;;;;;;5035825;28;20033;-62
2022/08/16 10:00:57;;;;;;;9.90;8.88;;;;;;;;;;5036041;28;20029;-62
2022/08/16 10:03:23;;;;;;;11.73;9.23;;;;;;;;;;5036043;28;20049;-62
2022/08/16 10:05:48;;;;;;;12.70;9.20;;;;;;;;;;5035698;28;20022;-62
2022/08/16 10:08:15;;;;;;;9.75;8.75;;;;;;;;;;5035949;28;20080;-62
2022/08/16 10:13:10;;;;;;;10.57;8.93;;;;;;;;;;5035592;28;20425;-62
2022/08/16 10:13:27;;;;;;;12.15;9.52;;;;;;;;;;5034342;28;20037;-62
2022/08/16 10:15:58;;;;;;;17.88;10.23;;;;;;;;;;5036108;28;20025;-62
2022/08/16 10:18:28;;;;;;;17.63;11.65;;;;;;;;;;5035502;28;20030;-62
2022/08/16 10:20:54;;;;;;;20.40;11.13;;;;;;;;;;5034580;28;20052;-62
2022/08/16 10:23:20;;;;;;;16.15;10.88;;;;;;;;;;5035714;28;20044;-62
2022/08/16 10:25:46;;;;;;;12.38;9.65;;;;;;;;;;5035624;28;20017;-62
2022/08/16 10:28:12;;;;;;;9.02;8.07;;;;;;;;;;5035836;28;20424;-62
2022/08/16 10:30:37;;;;;;;9.38;8.30;;;;;;;;;;5067361;28;20076;-62
2022/08/16 10:33:03;;;;;;;13.25;9.02;;;;;;;;;;5035161;28;20029;-62
2022/08/16 10:35:29;;;;;;;10.20;8.45;;;;;;;;;;5035183;28;20513;-62
2022/08/16 10:37:55;;;;;;;11.57;8.73;;;;;;;;;;5035119;28;20091;-62
2022/08/16 10:40:20;;;;;;;8.82;7.28;;;;;;;;;;5034999;28;20431;-62
2022/08/16 10:42:48;;;;;;;9.60;8.60;;;;;;;;;;5035260;28;20033;-62
2022/08/16 10:45:13;;;;;;;11.80;9.50;;;;;;;;;;5034992;28;20044;-62
2022/08/16 10:47:39;;;;;;;10.38;8.38;;;;;;;;;;5035179;28;20061;-62
2022/08/16 10:50:05;;;;;;;10.25;8.32;;;;;;;;;;5035173;28;20021;-62
2022/08/16 10:52:32;;;;;;;10.75;8.05;;;;;;;;;;5034890;28;20025;-63
2022/08/16 10:54:58;;;;;;;11.27;9.55;;;;;;;;;;5035336;28;20043;-62
2022/08/16 10:57:24;;;;;;;12.20;8.88;;;;;;;;;;5034987;28;20079;-62
2022/08/16 10:59:51;;;;;;;10.43;8.52;;;;;;;;;;5033356;28;20424;-62
2022/08/16 11:02:17;;;;;;;9.68;8.70;;;;;;;;;;5034621;28;20029;-62
2022/08/16 11:04:42;;;;;;;9.18;8.25;;;;;;;;;;5035138;28;20063;-62
2022/08/16 11:07:08;;;;;;;11.88;8.35;;;;;;;;;;5033401;28;20496;-62
2022/08/16 11:09:34;;;;;;;9.80;8.75;;;;;;;;;;5034755;28;20465;-62
2022/08/16 11:11:59;;;;;;;11.40;8.95;;;;;;;;;;5034450;28;20021;-62
2022/08/16 11:14:24;;;;;;;12.23;9.45;;;;;;;;;;5034708;28;20053;-62
2022/08/16 11:16:51;;;;;;;11.38;9.38;;;;;;;;;;5034901;28;20033;-62
2022/08/16 11:19:16;;;;;;;10.98;9.68;;;;;;;;;;5033113;28;20465;-62
2022/08/16 11:21:43;;;;;;;11.30;9.25;;;;;;;;;;5034206;28;20064;-62
2022/08/16 11:24:08;;;;;;;9.93;8.98;;;;;;;;;;5034255;28;20014;-62
2022/08/16 11:26:34;;;;;;;13.20;9.07;;;;;;;;;;5034449;28;20036;-62
2022/08/16 11:29:00;;;;;;;13.27;9.32;;;;;;;;;;5066154;28;20025;-62
2022/08/16 11:31:25;;;;;;;18.27;10.50;;;;;;;;;;5066103;28;20061;-62
2022/08/16 11:33:51;;;;;;;17.08;11.20;;;;;;;;;;5033364;28;20108;-62
2022/08/16 11:36:18;;;;;;;16.10;11.55;;;;;;;;;;5034566;28;20109;-62
2022/08/16 11:38:45;;;;;;;12.07;10.13;;;;;;;;;;5033995;28;20029;-62
2022/08/16 11:41:10;;;;;;;18.35;10.68;;;;;;;;;;5033869;28;20060;-62
2022/08/16 11:43:36;;;;;;;11.70;10.50;;;;;;;;;;5034539;28;20103;-62
2022/08/16 11:46:07;;;;;;;11.82;10.50;;;;;;;;;;5033827;28;20040;-63
2022/08/16 11:48:32;;;;;;;;;;;;;;;;;;5034790;28;20022;-62
2022/08/16 11:50:59;;;;;;;14.77;11.37;;;;;;;;;;5034086;28;19927;-62
2022/08/16 11:53:27;;;;;;;12.50;11.20;;;;;;;;;;5034177;28;20272;-62
2022/08/16 11:55:53;;;;;;;13.40;10.45;;;;;;;;;;5034294;28;20511;-62
2022/08/16 11:58:18;;;;;;;12.07;10.90;;;;;;;;;;5033999;28;20029;-62
2022/08/16 12:00:45;;;;;;;13.48;12.02;;;;;;;;;;5034200;28;20028;-62
2022/08/16 12:03:11;;;;;;;12.80;11.52;;;;;;;;;;5033631;28;20041;-62
2022/08/16 12:05:37;;;;;;;13.65;11.20;;;;;;;;;;5033699;28;20465;-62
2022/08/16 12:08:03;;;;;;;12.50;11.18;;;;;;;;;;5033860;28;20029;-62
2022/08/16 12:10:29;;;;;;;14.00;11.18;;;;;;;;;;5033915;28;20072;-62
2022/08/16 12:12:55;;;;;;;12.48;11.15;;;;;;;;;;5033845;28;20067;-62
2022/08/16 12:15:20;;;;;;;12.77;10.95;;;;;;;;;;5032688;28;20021;-62
2022/08/16 12:17:46;;;;;;;11.63;10.52;;;;;;;;;;5033522;28;20029;-62
2022/08/16 12:20:13;;;;;;;12.48;11.13;;;;;;;;;;5033672;28;20032;-62
2022/08/16 12:22:39;;;;;;;14.25;11.05;;;;;;;;;;5033740;28;20022;-62
2022/08/16 12:25:06;;;;;;;12.35;11.15;;;;;;;;;;5033741;28;20472;-63
2022/08/16 12:27:31;;;;;;;13.10;10.52;;;;;;;;;;5033649;28;20120;-63
2022/08/16 12:29:57;;;;;;;11.10;10.00;;;;;;;;;;5033701;28;20107;-62
2022/08/16 12:32:22;;;;;;;12.07;10.88;;;;;;;;;;5033353;28;20036;-62
2022/08/16 12:34:48;;;;;;;11.15;9.95;;;;;;;;;;5032225;28;20454;-62
2022/08/16 12:37:15;;;;;;;13.07;10.82;;;;;;;;;;5033582;28;20041;-62
2022/08/16 12:39:40;;;;;;;10.98;9.38;;;;;;;;;;5033811;28;20398;-62
2022/08/16 12:42:08;;;;;;;10.57;9.52;;;;;;;;;;5033253;28;20097;-62
2022/08/16 12:44:34;;;;;;;12.07;10.88;;;;;;;;;;5036515;28;20024;-62
2022/08/16 12:49:44;;;;;;;11.02;9.48;;;;;;;;;;5035879;28;20033;-62
2022/08/16 12:52:10;;;;;;;13.25;10.45;;;;;;;;;;5069190;28;20083;-63
2022/08/16 12:54:38;;;;;;;11.63;8.63;;;;;;;;;;5036832;28;20444;-62
2022/08/16 12:57:05;;;;;;;10.63;9.23;;;;;;;;;;5037586;28;20117;-62
2022/08/16 12:59:30;;;;;;;10.48;7.60;;;;;;;;;;5036844;28;20029;-62
2022/08/16 13:01:58;;;;;;;9.38;8.45;;;;;;;;;;5035634;28;20037;-62
2022/08/16 13:04:23;;;;;;;9.35;8.50;;;;;;;;;;5035712;28;20040;-62
2022/08/16 13:06:49;;;;;;;9.48;8.43;;;;;;;;;;5037113;28;20021;-62
2022/08/16 13:09:23;;;;;;;8.73;7.90;;;;;;;;;;5035506;28;20029;-62
2022/08/16 13:12:02;;;;;;;9.15;8.25;;;;;;;;;;5037030;28;20034;-62
2022/08/16 13:14:32;;;;;;;10.98;8.82;;;;;;;;;;5036958;28;20025;-63
2022/08/16 13:16:58;;;;;;;9.73;8.77;;;;;;;;;;5036683;28;20108;-62
2022/08/16 13:19:23;;;;;;;10.48;9.15;;;;;;;;;;5036599;28;20394;-62
2022/08/16 13:21:48;;;;;;;9.82;8.90;;;;;;;;;;5036467;28;20033;-62
2022/08/16 13:24:14;;;;;;;9.38;8.27;;;;;;;;;;5037060;28;20013;-62
2022/08/16 13:26:39;;;;;;;10.30;8.07;;;;;;;;;;5036475;28;20511;-62
2022/08/16 13:29:05;;;;;;;9.18;7.80;;;;;;;;;;5036712;28;20020;-62
2022/08/16 13:31:30;;;;;;;11.00;8.80;;;;;;;;;;5036918;28;20029;-63
2022/08/16 13:33:56;;;;;;;11.63;10.43;;;;;;;;;;5036348;28;20017;-62
2022/08/16 13:36:21;;;;;;;10.25;7.03;;;;;;;;;;5036283;28;20465;-63
2022/08/16 13:38:46;;;;;;;8.23;7.43;;;;;;;;;;5036565;28;20385;-63
2022/08/16 13:41:13;;;;;;;8.32;7.45;;;;;;;;;;5036394;28;20029;-62
2022/08/16 13:43:38;;;;;;;8.93;6.93;;;;;;;;;;5036603;28;20025;-63
2022/08/16 13:46:05;;;;;;;14.15;8.82;;;;;;;;;;5035975;28;20527;-62
2022/08/16 13:48:31;;;;;;;7.80;7.10;;;;;;;;;;5036389;28;20018;-62
2022/08/16 13:50:56;;;;;;;11.32;8.27;;;;;;;;;;5036711;28;20160;-62
2022/08/16 13:53:22;;;;;;;13.45;9.02;;;;;;;;;;5035808;28;20042;-62
2022/08/16 13:55:48;;;;;;;10.32;8.75;;;;;;;;;;5066795;28;20025;-62
2022/08/16 13:58:13;;;;;;;11.77;8.90;;;;;;;;;;5036237;28;20029;-63
2022/08/16 14:00:39;;;;;;;11.85;9.20;;;;;;;;;;5036315;28;20041;-62
2022/08/16 14:03:06;;;;;;;12.82;8.43;;;;;;;;;;5035614;28;20056;-62
2022/08/16 14:05:31;;;;;;;9.50;8.10;;;;;;;;;;5036260;28;20045;-63
2022/08/16 14:07:57;;;;;;;10.85;8.57;;;;;;;;;;5035694;28;20461;-63
2022/08/16 14:10:23;;;;;;;11.68;7.90;;;;;;;;;;5035939;28;20030;-62
2022/08/16 14:12:48;;;;;;;12.75;9.07;;;;;;;;;;5035600;28;20104;-62
2022/08/16 14:15:14;;;;;;;12.38;8.77;;;;;;;;;;5035537;28;20025;-63
2022/08/16 14:17:40;;;;;;;11.05;9.30;;;;;;;;;;5034626;28;20031;-62
2022/08/16 14:20:06;;;;;;;11.18;8.63;;;;;;;;;;5033303;28;20112;-63
2022/08/16 14:22:36;;;;;;;9.75;8.18;;;;;;;;;;5034190;28;20397;-63
2022/08/16 14:25:05;;;;;;;11.30;9.15;;;;;;;;;;5065862;28;20032;-62
2022/08/16 14:27:31;;;;;;;12.52;9.75;;;;;;;;;;5034283;28;20168;-63
2022/08/16 14:29:57;;;;;;;11.73;9.35;;;;;;;;;;5034230;28;20521;-62
2022/08/16 14:32:23;;;;;;;12.00;9.13;;;;;;;;;;5034143;28;20040;-62
2022/08/16 14:34:49;;;;;;;12.77;9.45;;;;;;;;;;5034157;28;20020;-63